createdAt,value
2018-05-07T00:00:34.041Z,61.80
2018-05-07T00:03:00.982Z,61.80
2018-05-07T00:05:28.339Z,62.00
2018-05-07T00:07:55.306Z,64.20
2018-05-07T00:10:22.298Z,64.00
2018-05-07T00:12:49.250Z,64.00
2018-05-07T00:15:16.210Z,64.20
2018-05-07T00:17:43.961Z,63.90
2018-05-07T00:20:11.693Z,64.90
2018-05-07T00:22:38.749Z,64.80
2018-05-07T00:25:05.639Z,66.50
2018-05-07T00:27:33.068Z,65.20
2018-05-07T00:30:00.438Z,64.80
2018-05-07T00:32:27.855Z,66.50
2018-05-07T00:34:55.294Z,63.30
2018-05-07T00:37:22.675Z,62.90
2018-05-07T00:39:50.856Z,66.90
2018-05-07T00:42:18.259Z,66.90
2018-05-07T00:44:45.670Z,66.20
2018-05-07T00:47:13.088Z,66.00
2018-05-07T00:49:40.494Z,65.40
2018-05-07T00:52:08.671Z,66.50
2018-05-07T00:54:47.827Z,66.50
2018-05-07T00:57:14.803Z,64.70
2018-05-07T00:59:42.546Z,65.40
2018-05-07T01:02:10.283Z,66.00
2018-05-07T01:04:37.243Z,65.90
2018-05-07T01:07:04.235Z,65.50
2018-05-07T01:09:31.648Z,66.00
2018-05-07T01:11:58.606Z,64.50
2018-05-07T01:14:26.037Z,63.90
2018-05-07T01:16:53.444Z,65.80
2018-05-07T01:19:20.854Z,64.50
2018-05-07T01:21:49.024Z,64.30
2018-05-07T01:24:16.439Z,64.30
2018-05-07T01:26:43.872Z,65.30
2018-05-07T01:29:11.279Z,67.00
2018-05-07T01:31:39.003Z,67.20
2018-05-07T01:34:06.419Z,67.00
2018-05-07T01:36:34.611Z,68.40
2018-05-07T01:39:02.019Z,68.30
2018-05-07T01:41:30.203Z,68.10
2018-05-07T01:43:57.632Z,68.10
2018-05-07T01:46:25.791Z,68.30
2018-05-07T01:48:53.526Z,67.80
2018-05-07T01:51:21.279Z,67.90
2018-05-07T01:53:48.242Z,67.90
2018-05-07T01:56:15.205Z,69.10
2018-05-07T01:58:42.166Z,70.30
2018-05-07T02:01:10.357Z,69.20
2018-05-07T02:03:37.747Z,69.10
2018-05-07T02:06:05.180Z,69.00
2018-05-07T02:08:32.559Z,70.10
2018-05-07T02:11:00.738Z,69.50
2018-05-07T02:13:28.143Z,69.50
2018-05-07T02:15:56.316Z,70.90
2018-05-07T02:18:24.491Z,71.20
2018-05-07T02:20:51.910Z,71.20
2018-05-07T02:23:20.096Z,71.70
2018-05-07T02:25:47.503Z,71.60
2018-05-07T02:28:15.688Z,72.50
2018-05-07T02:30:43.090Z,71.80
2018-05-07T02:33:10.516Z,73.50
2018-05-07T02:35:37.921Z,72.00
2018-05-07T02:38:05.356Z,71.40
2018-05-07T02:40:32.763Z,72.20
2018-05-07T02:43:00.188Z,71.90
2018-05-07T02:45:27.614Z,72.90
2018-05-07T02:47:55.023Z,74.70
2018-05-07T02:50:22.454Z,74.40
2018-05-07T02:52:50.628Z,73.90
2018-05-07T02:55:18.042Z,73.80
2018-05-07T02:57:46.226Z,75.10
2018-05-07T03:00:13.615Z,75.00
2018-05-07T03:02:41.035Z,74.60
2018-05-07T03:05:08.460Z,74.70
2018-05-07T03:07:35.875Z,75.20
2018-05-07T03:10:03.283Z,75.50
2018-05-07T03:12:30.691Z,75.20
2018-05-07T03:14:58.101Z,75.80
2018-05-07T03:17:25.576Z,76.00
2018-05-07T03:19:52.919Z,75.40
2018-05-07T03:22:20.340Z,75.80
2018-05-07T03:24:47.834Z,75.00
2018-05-07T03:27:15.928Z,75.70
2018-05-07T03:29:43.339Z,75.70
2018-05-07T03:32:11.540Z,75.90
2018-05-07T03:34:38.939Z,75.70
2018-05-07T03:37:07.114Z,76.40
2018-05-07T03:39:35.298Z,77.30
2018-05-07T03:42:02.718Z,77.20
2018-05-07T03:44:30.912Z,78.60
2018-05-07T03:46:58.320Z,78.60
2018-05-07T03:49:25.737Z,79.20
2018-05-07T03:51:53.145Z,80.10
2018-05-07T03:54:20.551Z,80.00
2018-05-07T03:56:47.951Z,80.30
2018-05-07T03:59:16.904Z,79.90
2018-05-07T04:01:44.290Z,79.70
2018-05-07T04:04:12.479Z,81.10
2018-05-07T04:06:41.559Z,80.90
2018-05-07T04:09:08.966Z,81.60
2018-05-07T04:11:37.145Z,82.60
2018-05-07T04:14:04.546Z,82.60
2018-05-07T04:16:43.880Z,82.30
2018-05-07T04:19:23.896Z,81.10
2018-05-07T04:22:03.225Z,80.40
2018-05-07T04:24:30.639Z,80.70
2018-05-07T04:26:58.051Z,79.80
2018-05-07T04:29:25.466Z,79.60
2018-05-07T04:31:53.639Z,79.70
2018-05-07T04:34:21.055Z,79.70
2018-05-07T04:36:49.232Z,79.70
2018-05-07T04:39:17.418Z,78.40
2018-05-07T04:41:44.841Z,78.40
2018-05-07T04:44:11.799Z,78.80
2018-05-07T04:46:39.209Z,79.10
2018-05-07T04:49:06.607Z,79.70
2018-05-07T04:51:34.012Z,79.50
2018-05-07T04:54:01.427Z,80.00
2018-05-07T04:56:29.603Z,80.30
2018-05-07T04:58:57.015Z,80.30
2018-05-07T05:01:25.195Z,79.80
2018-05-07T05:03:52.608Z,79.70
2018-05-07T05:06:20.785Z,80.60
2018-05-07T05:08:48.957Z,80.80
2018-05-07T05:11:16.363Z,80.60
2018-05-07T05:13:43.775Z,80.50
2018-05-07T05:16:11.196Z,80.90
2018-05-07T05:18:38.603Z,80.90
2018-05-07T05:21:06.811Z,81.10
2018-05-07T05:23:34.230Z,81.10
2018-05-07T05:26:01.644Z,80.90
2018-05-07T05:28:29.818Z,79.90
2018-05-07T05:30:57.244Z,79.80
2018-05-07T05:33:25.414Z,80.00
2018-05-07T05:35:52.833Z,79.90
2018-05-07T05:38:21.011Z,79.20
2018-05-07T05:40:48.431Z,79.10
2018-05-07T05:43:16.603Z,80.00
2018-05-07T05:45:44.774Z,79.60
2018-05-07T05:48:12.188Z,79.60
2018-05-07T05:50:39.602Z,79.90
2018-05-07T05:53:07.020Z,80.80
2018-05-07T05:55:34.423Z,78.90
2018-05-07T05:58:02.617Z,78.60
2018-05-07T06:00:30.023Z,78.60
2018-05-07T06:02:58.190Z,79.00
2018-05-07T06:05:25.607Z,78.30
2018-05-07T06:07:53.016Z,79.60
2018-05-07T06:10:20.431Z,80.20
2018-05-07T06:12:47.402Z,78.80
2018-05-07T06:15:14.372Z,79.20
2018-05-07T06:17:42.555Z,79.00
2018-05-07T06:20:09.529Z,79.00
2018-05-07T06:22:36.944Z,78.30
2018-05-07T06:25:03.986Z,77.60
2018-05-07T06:27:31.403Z,78.10
2018-05-07T06:29:58.378Z,78.40
2018-05-07T06:32:25.390Z,78.80
2018-05-07T06:34:52.838Z,78.10
2018-05-07T06:37:19.794Z,77.40
2018-05-07T06:39:47.967Z,80.20
2018-05-07T06:42:16.151Z,80.00
2018-05-07T06:44:43.562Z,79.90
2018-05-07T06:47:10.975Z,79.60
2018-05-07T06:49:38.407Z,80.10
2018-05-07T06:52:05.837Z,79.50
2018-05-07T06:54:33.238Z,80.10
2018-05-07T06:57:01.408Z,80.40
2018-05-07T06:59:28.827Z,80.30
2018-05-07T07:01:57.004Z,80.20
2018-05-07T07:04:24.411Z,79.80
2018-05-07T07:06:51.850Z,80.50
2018-05-07T07:09:19.251Z,80.90
2018-05-07T07:11:46.671Z,79.50
2018-05-07T07:14:14.075Z,80.60
2018-05-07T07:16:41.492Z,80.20
2018-05-07T07:19:08.907Z,80.60
2018-05-07T07:21:36.322Z,80.50
2018-05-07T07:24:03.746Z,79.40
2018-05-07T07:26:31.921Z,78.80
2018-05-07T07:29:00.099Z,79.30
2018-05-07T07:31:27.507Z,79.30
2018-05-07T07:33:55.733Z,77.00
2018-05-07T07:36:23.111Z,77.00
2018-05-07T07:38:51.286Z,78.90
2018-05-07T07:41:18.699Z,78.80
2018-05-07T07:43:46.887Z,75.30
2018-05-07T07:46:14.287Z,75.30
2018-05-07T07:48:41.696Z,75.00
2018-05-07T07:51:09.112Z,75.50
2018-05-07T07:53:36.556Z,74.90
2018-05-07T07:56:03.923Z,72.30
2018-05-07T07:58:31.331Z,74.60
2018-05-07T08:00:58.748Z,73.80
2018-05-07T08:03:26.171Z,72.80
2018-05-07T08:05:53.130Z,73.20
2018-05-07T08:08:21.311Z,71.30
2018-05-07T08:10:48.720Z,71.20
2018-05-07T08:13:16.887Z,73.00
2018-05-07T08:15:45.058Z,71.70
2018-05-07T08:18:12.486Z,71.70
2018-05-07T08:20:40.658Z,71.20
2018-05-07T08:23:08.068Z,71.10
2018-05-07T08:25:35.472Z,71.60
2018-05-07T08:28:02.447Z,71.80
2018-05-07T08:30:29.434Z,71.30
2018-05-07T08:32:56.807Z,69.70
2018-05-07T08:35:23.778Z,69.10
2018-05-07T08:37:50.752Z,68.60
2018-05-07T08:40:18.168Z,69.50
2018-05-07T08:42:45.563Z,68.00
2018-05-07T08:45:13.743Z,66.30
2018-05-07T08:47:40.711Z,66.20
2018-05-07T08:50:07.685Z,67.10
2018-05-07T08:52:35.452Z,66.90
2018-05-07T08:55:03.603Z,68.70
2018-05-07T08:57:31.357Z,66.80
2018-05-07T08:59:59.613Z,66.10
2018-05-07T09:02:27.779Z,65.20
2018-05-07T09:04:54.762Z,65.60
2018-05-07T09:07:22.171Z,65.80
2018-05-07T09:09:49.146Z,65.40
2018-05-07T09:12:16.150Z,63.50
2018-05-07T09:14:43.134Z,61.40
2018-05-07T09:17:10.905Z,64.80
2018-05-07T09:19:37.859Z,64.80
2018-05-07T09:22:04.830Z,64.00
2018-05-07T09:24:33.011Z,65.30
2018-05-07T09:27:00.419Z,64.50
2018-05-07T09:29:28.151Z,63.00
2018-05-07T09:31:55.563Z,63.10
2018-05-07T09:34:22.535Z,62.00
2018-05-07T09:36:49.504Z,61.60
2018-05-07T09:39:17.231Z,62.10
2018-05-07T09:41:45.416Z,63.80
2018-05-07T09:44:13.139Z,63.20
2018-05-07T09:46:40.874Z,59.80
2018-05-07T09:49:08.286Z,59.80
2018-05-07T09:51:35.267Z,60.80
2018-05-07T09:54:03.447Z,59.10
2018-05-07T09:56:30.851Z,59.10
2018-05-07T09:58:58.267Z,58.80
2018-05-07T10:01:25.281Z,58.70
2018-05-07T10:03:52.698Z,56.90
2018-05-07T10:06:20.114Z,57.30
2018-05-07T10:08:47.529Z,56.90
2018-05-07T10:11:14.943Z,57.80
2018-05-07T10:13:42.358Z,54.50
2018-05-07T10:16:09.775Z,57.10
2018-05-07T10:18:37.193Z,56.90
2018-05-07T10:21:04.609Z,56.70
2018-05-07T10:23:32.030Z,54.30
2018-05-07T10:26:00.203Z,54.30
2018-05-07T10:28:27.610Z,54.20
2018-05-07T10:30:55.782Z,55.00
2018-05-07T10:33:23.206Z,54.90
2018-05-07T10:35:50.603Z,54.40
2018-05-07T10:38:18.042Z,53.40
2018-05-07T10:40:45.459Z,54.40
2018-05-07T10:43:12.872Z,55.40
2018-05-07T10:45:41.042Z,52.50
2018-05-07T10:48:08.462Z,52.40
2018-05-07T10:50:35.425Z,53.20
2018-05-07T10:53:02.418Z,51.70
2018-05-07T10:55:29.836Z,52.60
2018-05-07T10:57:57.227Z,49.90
2018-05-07T11:00:24.243Z,51.80
2018-05-07T11:02:52.019Z,47.90
2018-05-07T11:05:18.998Z,47.80
2018-05-07T11:07:45.967Z,48.30
2018-05-07T11:10:13.703Z,46.50
2018-05-07T11:12:40.659Z,46.50
2018-05-07T11:15:07.621Z,46.90
2018-05-07T11:17:34.626Z,48.30
2018-05-07T11:20:01.602Z,47.70
2018-05-07T11:22:28.549Z,45.00
2018-05-07T11:24:56.296Z,44.10
2018-05-07T11:27:24.043Z,42.50
2018-05-07T11:29:51.475Z,42.40
2018-05-07T11:32:18.444Z,45.10
2018-05-07T11:34:46.166Z,42.80
2018-05-07T11:37:14.344Z,46.50
2018-05-07T11:39:42.078Z,45.20
2018-05-07T11:42:09.807Z,46.40
2018-05-07T11:44:37.222Z,46.30
2018-05-07T11:47:04.182Z,49.90
2018-05-07T11:49:31.170Z,48.40
2018-05-07T11:51:58.142Z,43.50
2018-05-07T11:54:25.153Z,41.40
2018-05-07T11:56:52.859Z,40.80
2018-05-07T11:59:20.590Z,44.70
2018-05-07T12:01:47.539Z,44.60
2018-05-07T12:04:14.594Z,39.60
2018-05-07T12:06:41.554Z,41.40
2018-05-07T12:09:08.634Z,41.50
2018-05-07T12:11:35.506Z,40.10
2018-05-07T12:14:02.493Z,38.30
2018-05-07T12:16:30.219Z,42.10
2018-05-07T12:18:58.391Z,41.60
2018-05-07T12:21:26.153Z,41.00
2018-05-07T12:23:53.133Z,41.00
2018-05-07T12:26:20.102Z,40.00
2018-05-07T12:28:47.843Z,38.80
2018-05-07T12:31:16.475Z,35.50
2018-05-07T12:33:43.365Z,35.30
2018-05-07T12:36:10.347Z,37.40
2018-05-07T12:38:37.751Z,39.80
2018-05-07T12:41:04.814Z,37.10
2018-05-07T12:43:31.818Z,36.20
2018-05-07T12:45:58.766Z,39.00
2018-05-07T12:48:25.738Z,36.50
2018-05-07T12:50:53.471Z,39.00
2018-05-07T12:53:21.219Z,39.70
2018-05-07T12:55:49.067Z,38.20
2018-05-07T12:58:17.986Z,36.00
2018-05-07T13:00:44.951Z,36.10
2018-05-07T13:03:12.355Z,34.90
2018-05-07T13:05:39.327Z,39.00
2018-05-07T13:08:06.743Z,32.70
2018-05-07T13:10:33.710Z,36.70
2018-05-07T13:13:01.155Z,34.10
2018-05-07T13:15:28.087Z,34.10
2018-05-07T13:17:55.049Z,34.60
2018-05-07T13:20:22.030Z,35.00
2018-05-07T13:22:49.000Z,32.90
2018-05-07T13:25:17.259Z,33.60
2018-05-07T13:27:45.001Z,32.20
2018-05-07T13:30:11.974Z,32.20
2018-05-07T13:32:38.948Z,33.10
2018-05-07T13:35:05.910Z,32.90
2018-05-07T13:37:33.648Z,32.60
2018-05-07T13:40:01.412Z,32.50
2018-05-07T13:42:28.378Z,32.40
2018-05-07T13:44:55.335Z,32.70
2018-05-07T13:47:22.319Z,33.00
2018-05-07T13:49:49.286Z,31.30
2018-05-07T13:52:16.264Z,31.80
2018-05-07T13:54:43.243Z,33.20
2018-05-07T13:57:10.658Z,32.80
2018-05-07T13:59:37.602Z,33.30
2018-05-07T14:02:05.005Z,33.80
2018-05-07T14:04:33.175Z,32.90
2018-05-07T14:07:00.156Z,32.90
2018-05-07T14:09:27.539Z,32.50
2018-05-07T14:11:54.505Z,33.90
2018-05-07T14:14:21.474Z,31.60
2018-05-07T14:16:49.239Z,33.00
2018-05-07T14:19:17.417Z,36.70
2018-05-07T14:21:44.832Z,37.20
2018-05-07T14:24:13.005Z,34.10
2018-05-07T14:26:41.180Z,31.50
2018-05-07T14:29:08.583Z,31.50
2018-05-07T14:31:36.000Z,32.40
2018-05-07T14:34:03.413Z,33.50
2018-05-07T14:36:30.820Z,32.90
2018-05-07T14:38:59.000Z,33.20
2018-05-07T14:41:27.178Z,32.80
2018-05-07T14:43:54.575Z,32.70
2018-05-07T14:46:22.759Z,32.60
2018-05-07T14:48:49.728Z,33.10
2018-05-07T14:51:17.189Z,32.70
2018-05-07T14:53:44.162Z,33.70
2018-05-07T14:56:11.160Z,31.90
2018-05-07T14:58:38.724Z,30.90
2018-05-07T15:01:06.059Z,30.70
2018-05-07T15:03:34.252Z,30.30
2018-05-07T15:06:01.652Z,30.30
2018-05-07T15:08:29.382Z,33.30
2018-05-07T15:10:56.364Z,33.30
2018-05-07T15:13:23.992Z,32.20
2018-05-07T15:15:50.886Z,32.50
2018-05-07T15:18:18.295Z,33.80
2018-05-07T15:20:45.271Z,32.30
2018-05-07T15:23:13.021Z,33.50
2018-05-07T15:25:40.018Z,33.40
2018-05-07T15:28:07.380Z,34.30
2018-05-07T15:30:34.783Z,34.80
2018-05-07T15:33:02.187Z,33.00
2018-05-07T15:35:30.358Z,34.40
2018-05-07T15:37:57.768Z,34.40
2018-05-07T15:40:25.172Z,34.80
2018-05-07T15:42:52.588Z,35.20
2018-05-07T15:45:19.554Z,34.50
2018-05-07T15:47:46.991Z,33.90
2018-05-07T15:50:14.386Z,33.10
2018-05-07T15:52:42.567Z,34.20
2018-05-07T15:55:10.008Z,34.20
2018-05-07T15:57:37.370Z,33.60
2018-05-07T16:00:04.327Z,33.00
2018-05-07T16:02:31.299Z,34.20
2018-05-07T16:04:58.724Z,34.00
2018-05-07T16:07:26.912Z,33.20
2018-05-07T16:09:53.888Z,33.10
2018-05-07T16:12:20.866Z,32.60
2018-05-07T16:14:47.867Z,32.70
2018-05-07T16:17:14.795Z,33.50
2018-05-07T16:19:42.959Z,34.60
2018-05-07T16:22:11.239Z,34.00
2018-05-07T16:24:38.551Z,33.90
2018-05-07T16:27:06.728Z,33.10
2018-05-07T16:29:34.139Z,33.60
2018-05-07T16:32:03.056Z,34.60
2018-05-07T16:34:30.495Z,34.60
2018-05-07T16:36:58.676Z,35.20
2018-05-07T16:39:26.111Z,35.20
2018-05-07T16:41:53.515Z,35.80
2018-05-07T16:44:21.698Z,36.00
2018-05-07T16:46:49.127Z,36.00
2018-05-07T16:49:17.300Z,36.70
2018-05-07T16:51:44.265Z,36.60
2018-05-07T16:54:11.740Z,35.70
2018-05-07T16:56:39.099Z,35.50
2018-05-07T16:59:07.276Z,35.30
2018-05-07T17:01:34.693Z,35.30
2018-05-07T17:04:02.863Z,34.70
2018-05-07T17:06:30.276Z,34.70
2018-05-07T17:08:57.688Z,34.10
2018-05-07T17:11:25.279Z,33.70
2018-05-07T17:13:52.507Z,34.20
2018-05-07T17:16:20.691Z,34.10
2018-05-07T17:18:48.117Z,34.70
2018-05-07T17:21:16.867Z,35.10
2018-05-07T17:23:45.058Z,34.40
2018-05-07T17:26:13.215Z,34.10
2018-05-07T17:28:40.630Z,34.00
2018-05-07T17:31:08.031Z,34.70
2018-05-07T17:33:35.480Z,35.10
2018-05-07T17:36:02.852Z,36.30
2018-05-07T17:38:30.271Z,37.20
2018-05-07T17:40:57.674Z,38.10
2018-05-07T17:43:25.079Z,37.90
2018-05-07T17:46:04.377Z,38.70
2018-05-07T17:48:43.686Z,37.60
2018-05-07T17:51:11.107Z,38.20
2018-05-07T17:53:38.508Z,38.80
2018-05-07T17:56:06.691Z,37.90
2018-05-07T17:58:34.096Z,37.90
2018-05-07T18:01:01.492Z,39.30
2018-05-07T18:03:28.911Z,39.20
2018-05-07T18:05:56.315Z,39.30
2018-05-07T18:08:23.717Z,38.20
2018-05-07T18:10:51.286Z,38.60
2018-05-07T18:13:18.592Z,39.20
2018-05-07T18:15:45.995Z,39.30
2018-05-07T18:18:14.181Z,39.90
2018-05-07T18:20:41.584Z,39.90
2018-05-07T18:23:08.997Z,40.10
2018-05-07T18:25:36.406Z,40.00
2018-05-07T18:28:03.823Z,40.40
2018-05-07T18:30:32.023Z,40.10
2018-05-07T18:32:59.422Z,40.10
2018-05-07T18:35:27.594Z,40.00
2018-05-07T18:37:55.010Z,40.00
2018-05-07T18:40:22.412Z,40.30
2018-05-07T18:42:49.816Z,39.60
2018-05-07T18:45:17.224Z,40.00
2018-05-07T18:47:44.632Z,40.00
2018-05-07T18:50:12.031Z,40.70
2018-05-07T18:52:40.216Z,40.70
2018-05-07T18:55:07.621Z,40.70
2018-05-07T18:57:35.803Z,41.40
2018-05-07T19:00:03.224Z,41.30
2018-05-07T19:02:30.630Z,41.70
2018-05-07T19:04:58.055Z,42.20
2018-05-07T19:07:25.463Z,41.90
2018-05-07T19:09:52.883Z,41.50
2018-05-07T19:12:21.054Z,42.30
2018-05-07T19:14:49.223Z,43.00
2018-05-07T19:17:16.639Z,42.90
2018-05-07T19:19:44.855Z,43.30
2018-05-07T19:22:12.250Z,43.10
2018-05-07T19:24:40.422Z,44.70
2018-05-07T19:27:07.822Z,44.60
2018-05-07T19:29:35.222Z,45.00
2018-05-07T19:32:02.631Z,43.90
2018-05-07T19:34:30.813Z,44.10
2018-05-07T19:36:58.282Z,44.00
2018-05-07T19:39:25.672Z,45.40
2018-05-07T19:41:53.834Z,46.10
2018-05-07T19:44:22.007Z,45.60
2018-05-07T19:46:49.406Z,45.70
2018-05-07T19:49:16.831Z,45.60
2018-05-07T19:51:44.223Z,50.20
2018-05-07T19:54:11.639Z,46.70
2018-05-07T19:56:39.826Z,49.60
2018-05-07T19:59:07.250Z,49.60
2018-05-07T20:01:35.434Z,47.00
2018-05-07T20:04:02.842Z,46.90
2018-05-07T20:06:30.263Z,46.60
2018-05-07T20:08:57.679Z,48.90
2018-05-07T20:11:25.079Z,47.50
2018-05-07T20:13:52.483Z,47.00
2018-05-07T20:16:19.887Z,46.90
2018-05-07T20:18:47.290Z,47.30
2018-05-07T20:21:15.479Z,49.00
2018-05-07T20:23:42.879Z,48.90
2018-05-07T20:26:10.286Z,47.00
2018-05-07T20:28:37.691Z,47.60
2018-05-07T20:31:05.109Z,47.40
2018-05-07T20:33:32.519Z,47.80
2018-05-07T20:35:59.951Z,50.30
2018-05-07T20:38:27.339Z,49.10
2018-05-07T20:40:55.520Z,48.50
2018-05-07T20:43:22.912Z,48.50
2018-05-07T20:45:50.323Z,51.30
2018-05-07T20:48:17.728Z,48.70
2018-05-07T20:50:45.916Z,49.10
2018-05-07T20:53:13.316Z,49.10
2018-05-07T20:55:41.487Z,49.10
2018-05-07T20:58:09.682Z,49.80
2018-05-07T21:00:36.642Z,49.70
2018-05-07T21:03:04.053Z,49.10
2018-05-07T21:05:31.460Z,49.20
2018-05-07T21:07:59.639Z,49.30
2018-05-07T21:10:27.043Z,49.90
2018-05-07T21:12:54.456Z,49.40
2018-05-07T21:15:21.418Z,50.20
2018-05-07T21:17:49.590Z,50.20
2018-05-07T21:20:17.768Z,50.40
2018-05-07T21:22:45.168Z,50.40
2018-05-07T21:25:12.572Z,50.50
2018-05-07T21:27:39.978Z,50.60
2018-05-07T21:30:07.389Z,51.00
2018-05-07T21:32:34.806Z,51.30
2018-05-07T21:35:02.197Z,53.80
2018-05-07T21:37:30.375Z,53.90
2018-05-07T21:39:57.807Z,53.80
2018-05-07T21:42:25.969Z,54.30
2018-05-07T21:44:53.383Z,54.30
2018-05-07T21:47:21.570Z,54.80
2018-05-07T21:49:48.974Z,54.70
2018-05-07T21:52:17.154Z,55.70
2018-05-07T21:54:44.579Z,55.50
2018-05-07T21:57:11.968Z,55.30
2018-05-07T21:59:39.391Z,56.50
2018-05-07T22:02:06.807Z,55.00
2018-05-07T22:04:34.971Z,56.80
2018-05-07T22:07:03.147Z,56.80
2018-05-07T22:09:30.547Z,57.40
2018-05-07T22:11:57.956Z,56.80
2018-05-07T22:14:25.371Z,57.30
2018-05-07T22:16:52.763Z,58.10
2018-05-07T22:19:20.179Z,57.10
2018-05-07T22:21:47.587Z,57.80
2018-05-07T22:24:15.003Z,57.90
2018-05-07T22:26:42.746Z,58.80
2018-05-07T22:29:09.701Z,58.40
2018-05-07T22:31:36.685Z,59.40
2018-05-07T22:34:03.637Z,58.30
2018-05-07T22:36:30.615Z,59.40
2018-05-07T22:38:57.561Z,60.20
2018-05-07T22:41:24.521Z,59.90
2018-05-07T22:43:52.245Z,60.60
2018-05-07T22:46:19.221Z,60.50
2018-05-07T22:48:46.947Z,61.60
2018-05-07T22:51:14.363Z,61.50
2018-05-07T22:53:41.337Z,61.20
2018-05-07T22:56:08.306Z,62.70
2018-05-07T22:58:35.710Z,61.90
2018-05-07T23:01:03.456Z,62.90
2018-05-07T23:03:30.406Z,62.90
2018-05-07T23:05:57.818Z,63.00
2018-05-07T23:08:24.771Z,63.80
2018-05-07T23:10:52.499Z,63.90
2018-05-07T23:13:19.460Z,63.90
2018-05-07T23:15:47.618Z,64.50
2018-05-07T23:18:14.605Z,64.40
2018-05-07T23:20:41.562Z,64.90
2018-05-07T23:23:08.558Z,66.00
2018-05-07T23:25:35.522Z,66.20
2018-05-07T23:28:03.277Z,66.30
2018-05-07T23:30:31.469Z,66.10
2018-05-07T23:32:58.859Z,66.10
2018-05-07T23:35:26.582Z,68.30
2018-05-07T23:37:54.307Z,68.30
2018-05-07T23:40:21.267Z,67.90
2018-05-07T23:42:48.241Z,68.20
2018-05-07T23:45:16.902Z,68.50
2018-05-07T23:47:44.643Z,68.80
2018-05-07T23:50:12.370Z,69.20
2018-05-07T23:52:39.371Z,69.10
2018-05-07T23:55:06.319Z,69.60
2018-05-07T23:57:33.294Z,69.90
